Time;durP1;ratioP1;P1;durP2;ratioP2;P2;SDS_P1;SDS_P2;PMS_P1;PMS_P2;Temp;Humidity;BMP_temperature;BMP_pressure;BME280_temperature;BME280_humidity;BME280_pressure;Samples;Min_cycle;Max_cycle;Signal;HPM_P1;HPM_P2
2023/05/09 00:01:23;;;;;;;1.92;1.80;;;13.70;99.90;;;;;;5022794;28;20433;-75
2023/05/09 00:03:50;;;;;;;1.95;1.85;;;13.70;99.90;;;;;;5022591;28;20437;-75
2023/05/09 00:06:18;;;;;;;3.35;3.03;;;13.70;99.90;;;;;;5024047;28;20431;-75
2023/05/09 00:08:45;;;;;;;2.10;1.90;;;13.70;99.90;;;;;;5023478;28;20461;-75
2023/05/09 00:11:12;;;;;;;2.65;2.00;;;13.70;99.90;;;;;;5020925;28;20438;-76
2023/05/09 00:13:40;;;;;;;1.73;1.63;;;13.70;99.90;;;;;;5024574;28;20431;-75
2023/05/09 00:16:09;;;;;;;2.45;2.00;;;13.70;99.90;;;;;;5015132;28;20495;-75
2023/05/09 00:18:36;;;;;;;2.22;1.98;;;13.70;99.90;;;;;;5022982;28;20446;-75
2023/05/09 00:21:03;;;;;;;1.88;1.48;;;13.70;99.90;;;;;;5020355;28;20518;-75
2023/05/09 00:23:30;;;;;;;1.70;1.60;;;13.70;99.90;;;;;;5022798;28;20504;-75
2023/05/09 00:25:58;;;;;;;1.77;1.50;;;13.80;99.90;;;;;;5023447;28;20426;-75
2023/05/09 00:28:24;;;;;;;2.13;1.95;;;13.90;99.90;;;;;;5020868;28;20480;-75
2023/05/09 00:30:51;;;;;;;1.87;1.53;;;13.80;99.90;;;;;;5032192;28;20972;-75
2023/05/09 00:33:19;;;;;;;2.17;2.08;;;13.90;99.90;;;;;;5019491;28;20441;-75
2023/05/09 00:35:49;;;;;;;2.22;1.75;;;13.90;99.90;;;;;;5019781;28;20444;-75
2023/05/09 00:38:15;;;;;;;2.38;2.05;;;13.90;99.90;;;;;;5016769;28;20800;-75
2023/05/09 00:40:42;;;;;;;1.77;1.67;;;13.90;99.90;;;;;;5016207;28;20443;-75
2023/05/09 00:43:09;;;;;;;1.73;1.63;;;13.90;99.90;;;;;;5019849;28;20435;-75
2023/05/09 00:45:35;;;;;;;2.08;1.98;;;13.90;99.90;;;;;;5032401;28;20437;-75
2023/05/09 00:48:02;;;;;;;1.77;1.67;;;13.90;99.90;;;;;;5022053;28;20484;-75
2023/05/09 00:50:30;;;;;;;1.80;1.40;;;13.90;99.90;;;;;;5016236;28;20426;-75
2023/05/09 00:52:57;;;;;;;1.90;1.80;;;13.90;99.90;;;;;;5020942;28;20489;-75
2023/05/09 00:55:26;;;;;;;1.98;1.60;;;13.90;99.90;;;;;;5022845;28;20445;-75
2023/05/09 00:57:52;;;;;;;1.70;1.60;;;13.90;99.90;;;;;;5014176;28;20444;-75
2023/05/09 01:00:19;;;;;;;2.03;1.80;;;13.90;99.90;;;;;;5017665;28;20458;-75
2023/05/09 01:02:51;;;;;;;2.20;1.90;;;13.90;99.90;;;;;;5016680;28;20523;-75
2023/05/09 01:05:20;;;;;;;1.88;1.75;;;13.90;99.90;;;;;;5016331;28;20436;-75
2023/05/09 01:08:14;;;;;;;2.25;2.10;;;13.90;99.90;;;;;;5018567;28;20597;-75
2023/05/09 01:11:24;;;;;;;2.47;2.28;;;13.90;99.90;;;;;;5028381;28;20443;-75
2023/05/09 01:13:59;;;;;;;1.83;1.73;;;13.90;99.90;;;;;;5005509;28;20913;-75
2023/05/09 01:17:00;;;;;;;2.67;2.05;;;13.80;99.90;;;;;;5022238;28;20441;-75
2023/05/09 01:20:23;;;;;;;3.10;1.90;;;13.80;99.90;;;;;;5022431;28;20435;-75
2023/05/09 01:23:06;;;;;;;2.13;1.93;;;13.80;99.90;;;;;;4938841;29;20434;-75
2023/05/09 01:25:37;;;;;;;1.58;1.48;;;13.90;99.90;;;;;;4936081;28;20864;-75
2023/05/09 01:28:15;;;;;;;2.67;2.20;;;13.90;99.90;;;;;;4934588;28;20986;-75
2023/05/09 01:30:45;;;;;;;2.47;2.13;;;13.80;99.90;;;;;;4936689;28;20437;-75
2023/05/09 01:33:19;;;;;;;2.10;2.00;;;13.60;99.90;;;;;;4937575;28;20437;-75
2023/05/09 01:35:52;;;;;;;2.67;2.47;;;13.50;99.90;;;;;;4944824;28;20430;-75
2023/05/09 01:38:24;;;;;;;2.25;1.55;;;13.40;99.90;;;;;;4942021;29;21005;-75
2023/05/09 01:40:53;;;;;;;2.03;1.90;;;13.20;99.90;;;;;;4942679;29;20437;-75
2023/05/09 01:43:24;;;;;;;3.40;2.25;;;13.10;99.90;;;;;;4945448;29;20784;-75
2023/05/09 01:45:52;;;;;;;1.98;1.67;;;12.90;99.90;;;;;;4938533;29;20439;-75
2023/05/09 01:48:21;;;;;;;2.65;1.95;;;12.80;99.90;;;;;;4935509;28;20463;-75
2023/05/09 01:50:51;;;;;;;2.20;1.90;;;12.80;99.90;;;;;;4938024;29;20526;-75
2023/05/09 01:53:18;;;;;;;1.83;1.73;;;12.80;99.90;;;;;;4940570;28;20449;-75
2023/05/09 01:55:47;;;;;;;2.35;2.25;;;12.70;99.90;;;;;;4943101;29;20665;-75
2023/05/09 01:58:15;;;;;;;2.42;2.22;;;12.50;99.90;;;;;;4972184;28;20689;-74
2023/05/09 02:00:43;;;;;;;4.90;2.08;;;12.40;99.90;;;;;;5023485;28;20450;-75
2023/05/09 02:03:10;;;;;;;1.80;1.70;;;12.40;99.90;;;;;;5019473;28;20520;-75
2023/05/09 02:05:38;;;;;;;3.40;1.95;;;12.40;99.90;;;;;;5021967;28;20444;-75
2023/05/09 02:08:07;;;;;;;2.22;1.80;;;12.40;99.90;;;;;;5025215;28;20787;-75
2023/05/09 02:10:37;;;;;;;1.52;1.38;;;12.30;99.90;;;;;;5016831;28;20837;-75
2023/05/09 02:13:04;;;;;;;1.67;1.58;;;12.30;99.90;;;;;;5026648;28;20505;-75
2023/05/09 02:15:43;;;;;;;1.75;1.65;;;12.30;99.90;;;;;;5022945;28;20878;-74
2023/05/09 02:18:09;;;;;;;3.03;2.50;;;12.30;99.90;;;;;;5022153;28;20443;-75
2023/05/09 02:20:39;;;;;;;3.13;2.30;;;12.30;99.90;;;;;;5022311;28;20470;-75
2023/05/09 02:23:06;;;;;;;2.03;1.52;;;12.30;99.90;;;;;;5023289;28;20427;-75
2023/05/09 02:25:33;;;;;;;1.75;1.65;;;12.30;99.90;;;;;;5023572;28;20944;-75
2023/05/09 02:28:01;;;;;;;2.30;2.13;;;12.30;99.90;;;;;;5021405;28;20427;-74
2023/05/09 02:30:33;;;;;;;2.03;1.92;;;12.30;99.90;;;;;;5024957;28;20435;-75
2023/05/09 02:33:05;;;;;;;1.60;1.50;;;12.20;99.90;;;;;;5018301;28;20465;-75
2023/05/09 02:35:34;;;;;;;1.67;1.13;;;12.10;99.90;;;;;;5039218;28;20442;-75
2023/05/09 02:38:01;;;;;;;2.40;2.20;;;12.10;99.90;;;;;;5024101;28;20514;-75
2023/05/09 02:40:29;;;;;;;2.13;1.92;;;12.10;99.90;;;;;;5022772;28;20834;-75
2023/05/09 02:42:56;;;;;;;2.22;2.00;;;12.10;99.90;;;;;;5024880;28;20477;-75
2023/05/09 02:45:23;;;;;;;2.53;2.00;;;12.00;99.90;;;;;;5022374;28;20444;-75
2023/05/09 02:47:50;;;;;;;1.67;1.58;;;12.10;99.90;;;;;;5025445;28;20461;-75
2023/05/09 02:50:16;;;;;;;2.33;2.07;;;12.20;99.90;;;;;;5023038;28;20438;-75
2023/05/09 02:52:43;;;;;;;2.42;2.05;;;12.30;99.90;;;;;;5020825;28;20442;-75
2023/05/09 02:55:12;;;;;;;2.42;2.25;;;12.40;99.90;;;;;;5025502;28;20508;-75
2023/05/09 02:57:39;;;;;;;2.58;2.38;;;12.40;99.90;;;;;;5020694;28;20737;-75
2023/05/09 03:00:10;;;;;;;4.05;2.55;;;12.40;99.90;;;;;;5022475;28;20435;-75
2023/05/09 03:02:43;;;;;;;1.95;1.80;;;12.30;99.90;;;;;;5038853;28;22601;-75
2023/05/09 03:05:10;;;;;;;1.90;1.80;;;12.10;99.90;;;;;;5026036;28;20437;-75
2023/05/09 03:07:37;;;;;;;2.22;1.92;;;12.00;99.90;;;;;;5026217;28;20461;-75
2023/05/09 03:10:04;;;;;;;2.15;1.95;;;12.00;99.90;;;;;;5023705;28;20569;-75
2023/05/09 03:12:31;;;;;;;1.70;1.60;;;11.90;99.90;;;;;;5026107;28;20431;-75
2023/05/09 03:14:58;;;;;;;2.53;2.33;;;11.80;99.90;;;;;;5024769;28;20435;-75
2023/05/09 03:17:24;;;;;;;2.22;2.05;;;11.80;99.90;;;;;;5024656;28;20439;-75
2023/05/09 03:19:53;;;;;;;3.15;2.05;;;11.70;99.90;;;;;;5023185;28;20426;-75
2023/05/09 03:22:22;;;;;;;2.30;2.10;;;11.60;99.90;;;;;;5024184;28;20945;-75
2023/05/09 03:24:49;;;;;;;2.55;2.33;;;11.50;99.90;;;;;;5022996;28;20496;-74
2023/05/09 03:27:16;;;;;;;2.10;2.00;;;11.50;99.90;;;;;;5026939;28;20427;-75
2023/05/09 03:29:43;;;;;;;1.98;1.88;;;11.50;99.90;;;;;;5019528;28;20434;-75
2023/05/09 03:32:09;;;;;;;2.17;1.83;;;11.50;99.90;;;;;;5025242;28;20431;-75
2023/05/09 03:34:38;;;;;;;2.50;1.85;;;11.40;99.90;;;;;;5025699;28;20438;-75
2023/05/09 03:37:05;;;;;;;1.55;1.30;;;11.30;99.90;;;;;;5024385;28;20442;-75
2023/05/09 03:39:32;;;;;;;2.10;2.00;;;11.30;99.90;;;;;;5020423;28;20442;-75
2023/05/09 03:42:00;;;;;;;2.28;2.08;;;11.40;99.90;;;;;;5025252;28;20517;-75
2023/05/09 03:44:27;;;;;;;2.53;2.25;;;11.40;99.90;;;;;;5018317;28;20433;-75
2023/05/09 03:46:54;;;;;;;2.87;1.93;;;11.40;99.90;;;;;;5017011;28;20452;-75
2023/05/09 03:49:21;;;;;;;1.73;1.65;;;11.40;99.90;;;;;;5015128;28;20516;-75
2023/05/09 03:51:47;;;;;;;2.55;1.90;;;11.50;99.90;;;;;;5020837;28;20435;-75
2023/05/09 03:54:14;;;;;;;2.00;1.90;;;11.50;99.90;;;;;;5025262;28;20936;-75
2023/05/09 03:56:41;;;;;;;1.80;1.70;;;11.50;99.90;;;;;;5023648;28;20442;-75
2023/05/09 03:59:08;;;;;;;2.47;2.28;;;11.40;99.90;;;;;;5025072;28;20501;-75
2023/05/09 04:01:34;;;;;;;1.35;1.33;;;11.20;99.90;;;;;;5022040;28;20435;-75
2023/05/09 04:04:03;;;;;;;6.55;2.20;;;11.10;99.90;;;;;;5023807;28;20434;-75
2023/05/09 04:06:30;;;;;;;1.88;1.77;;;11.00;99.90;;;;;;5022629;28;20800;-75
2023/05/09 04:08:59;;;;;;;1.73;1.63;;;11.00;99.90;;;;;;5025569;28;20435;-75
2023/05/09 04:11:26;;;;;;;1.83;1.70;;;10.90;99.90;;;;;;5013353;28;20447;-75
2023/05/09 04:13:53;;;;;;;1.73;1.63;;;11.00;99.90;;;;;;5022509;28;20439;-75
2023/05/09 04:16:20;;;;;;;2.50;2.40;;;11.00;99.90;;;;;;5024013;28;20431;-75
2023/05/09 04:18:47;;;;;;;2.00;1.90;;;11.10;99.90;;;;;;5024183;28;20855;-75
2023/05/09 04:21:13;;;;;;;2.05;1.95;;;11.30;99.90;;;;;;5024942;28;21216;-75
2023/05/09 04:23:42;;;;;;;1.70;1.60;;;11.40;99.90;;;;;;5012656;28;20439;-75
2023/05/09 04:26:11;;;;;;;3.97;2.40;;;11.60;99.90;;;;;;5022445;28;21060;-75
2023/05/09 04:28:37;;;;;;;1.90;1.80;;;11.70;99.90;;;;;;5023274;28;20438;-75
2023/05/09 04:31:07;;;;;;;3.75;2.47;;;11.90;99.90;;;;;;5024291;28;20443;-75
2023/05/09 04:33:35;;;;;;;3.75;2.75;;;12.00;99.90;;;;;;5022539;28;20510;-75
2023/05/09 04:36:01;;;;;;;2.03;1.85;;;12.00;99.90;;;;;;5023634;28;20435;-75
2023/05/09 04:38:28;;;;;;;2.17;2.08;;;12.10;99.90;;;;;;5019995;28;20584;-75
2023/05/09 04:40:55;;;;;;;2.47;2.28;;;12.30;99.90;;;;;;5022787;28;20434;-76
2023/05/09 04:43:22;;;;;;;1.83;1.73;;;12.40;99.90;;;;;;5016134;28;20751;-75
2023/05/09 04:45:48;;;;;;;2.65;2.45;;;12.60;99.90;;;;;;5020208;28;20442;-75
2023/05/09 04:48:15;;;;;;;2.80;2.17;;;12.80;99.90;;;;;;5018291;28;20431;-76
2023/05/09 04:50:42;;;;;;;2.25;2.05;;;13.00;99.90;;;;;;5016930;28;20458;-75
2023/05/09 04:53:09;;;;;;;2.15;2.05;;;13.20;99.90;;;;;;5005610;28;20434;-75
2023/05/09 04:55:36;;;;;;;3.27;2.47;;;13.30;99.90;;;;;;5013149;28;20446;-76
2023/05/09 04:58:03;;;;;;;2.15;2.05;;;13.50;99.90;;;;;;5018922;28;20829;-75
2023/05/09 05:00:30;;;;;;;2.22;2.08;;;13.60;99.90;;;;;;5011675;28;20910;-75
2023/05/09 05:02:56;;;;;;;2.03;1.77;;;13.80;99.90;;;;;;5013842;28;20930;-76
2023/05/09 05:05:23;;;;;;;2.00;1.80;;;14.00;99.90;;;;;;5020832;28;20434;-76
2023/05/09 05:07:52;;;;;;;2.87;2.43;;;14.30;99.90;;;;;;5018575;28;20961;-76
2023/05/09 05:10:19;;;;;;;2.85;2.20;;;14.50;99.90;;;;;;5024076;28;20771;-75
2023/05/09 05:12:46;;;;;;;2.60;2.33;;;14.70;99.90;;;;;;5026239;28;20925;-76
2023/05/09 05:15:13;;;;;;;2.95;2.58;;;15.20;99.90;;;;;;5021606;28;20894;-76
2023/05/09 05:17:40;;;;;;;2.47;2.28;;;15.60;99.90;;;;;;5026388;28;20442;-76
2023/05/09 05:20:09;;;;;;;2.45;2.25;;;15.90;99.90;;;;;;5027707;28;20462;-76
2023/05/09 05:22:36;;;;;;;2.47;2.08;;;16.30;99.90;;;;;;5019235;28;20435;-76
2023/05/09 05:25:04;;;;;;;3.47;3.17;;;16.50;99.90;;;;;;5014883;28;20515;-76
2023/05/09 05:27:33;;;;;;;3.67;3.07;;;16.50;99.90;;;;;;5018027;28;20438;-76
2023/05/09 05:30:00;;;;;;;2.78;2.58;;;16.50;99.90;;;;;;5025246;28;20433;-75
2023/05/09 05:32:26;;;;;;;3.15;2.63;;;16.50;99.90;;;;;;5026545;28;20434;-75
2023/05/09 05:34:53;;;;;;;2.92;2.70;;;16.50;99.90;;;;;;5029386;28;20441;-75
2023/05/09 05:37:20;;;;;;;2.53;2.30;;;16.40;99.90;;;;;;5025246;28;20434;-75
2023/05/09 05:39:47;;;;;;;2.60;2.35;;;16.40;99.90;;;;;;5028464;28;20467;-74
2023/05/09 05:42:13;;;;;;;2.88;2.63;;;16.40;99.90;;;;;;5024346;28;20438;-72
2023/05/09 05:44:40;;;;;;;2.38;2.28;;;16.30;99.90;;;;;;5023649;28;20434;-72
2023/05/09 05:47:07;;;;;;;3.30;2.80;;;16.30;99.90;;;;;;5025399;28;20430;-71
2023/05/09 05:49:33;;;;;;;2.40;2.30;;;16.30;99.90;;;;;;5014564;28;20437;-72
2023/05/09 05:52:00;;;;;;;3.58;2.65;;;16.40;99.90;;;;;;5024960;28;20430;-72
2023/05/09 05:54:27;;;;;;;3.90;2.73;;;16.50;99.90;;;;;;5024497;28;20474;-72
2023/05/09 05:56:54;;;;;;;3.10;2.83;;;16.50;99.90;;;;;;5023161;28;20454;-72
2023/05/09 05:59:22;;;;;;;3.75;3.45;;;16.50;99.90;;;;;;5016023;28;20442;-71
2023/05/09 06:01:48;;;;;;;3.50;2.43;;;16.50;99.90;;;;;;5023935;28;20438;-72
2023/05/09 06:04:15;;;;;;;3.20;2.90;;;16.60;99.90;;;;;;5029604;28;20434;-72
2023/05/09 06:06:42;;;;;;;3.67;2.60;;;16.80;99.90;;;;;;5015518;28;20822;-72
2023/05/09 06:09:09;;;;;;;2.83;2.63;;;16.80;99.90;;;;;;5022855;28;20438;-72
2023/05/09 06:11:36;;;;;;;2.67;2.47;;;16.80;99.90;;;;;;5020076;28;20468;-72
2023/05/09 06:14:02;;;;;;;2.50;2.30;;;16.80;99.90;;;;;;5018433;28;20881;-72
2023/05/09 06:16:29;;;;;;;3.63;2.80;;;17.10;99.90;;;;;;5026415;28;20431;-72
2023/05/09 06:18:56;;;;;;;4.95;3.13;;;17.30;99.90;;;;;;5022846;28;20500;-72
2023/05/09 06:21:23;;;;;;;2.72;2.45;;;17.50;99.90;;;;;;5020275;28;20495;-72
2023/05/09 06:23:49;;;;;;;2.75;2.55;;;17.60;99.90;;;;;;5024294;28;20538;-72
2023/05/09 06:26:36;;;;;;;3.08;2.78;;;17.90;99.90;;;;;;5016528;28;20432;-72
2023/05/09 06:29:05;;;;;;;2.45;2.25;;;18.00;99.90;;;;;;5022431;28;20473;-72
2023/05/09 06:31:34;;;;;;;6.03;2.57;;;18.10;99.90;;;;;;5025575;28;20439;-72
2023/05/09 06:34:01;;;;;;;3.00;2.58;;;18.30;99.90;;;;;;5019642;28;20533;-72
2023/05/09 06:36:28;;;;;;;3.20;2.90;;;18.40;99.90;;;;;;5019104;28;20434;-73
2023/05/09 06:38:55;;;;;;;3.20;2.63;;;18.30;99.90;;;;;;5014564;28;20469;-73
2023/05/09 06:41:21;;;;;;;2.22;2.03;;;18.50;99.90;;;;;;5014234;28;20929;-73
2023/05/09 06:43:48;;;;;;;2.58;2.38;;;18.70;99.90;;;;;;5009118;28;20539;-72
2023/05/09 06:46:15;;;;;;;2.28;2.08;;;18.80;99.90;;;;;;5011607;28;20431;-73
2023/05/09 06:48:42;;;;;;;4.07;2.33;;;19.00;99.90;;;;;;5017396;28;20435;-72
2023/05/09 06:51:10;;;;;;;2.83;2.63;;;18.80;99.90;;;;;;5017594;28;20446;-72
2023/05/09 06:53:37;;;;;;;2.25;2.10;;;18.60;99.90;;;;;;5012651;28;20438;-72
2023/05/09 06:56:05;;;;;;;1.90;1.80;;;18.20;99.90;;;;;;5022827;28;20477;-75
2023/05/09 06:58:31;;;;;;;4.97;3.10;;;18.10;99.90;;;;;;5021082;28;20439;-77
2023/05/09 07:00:58;;;;;;;2.38;2.17;;;17.80;99.90;;;;;;5016593;28;20788;-75
2023/05/09 07:03:25;;;;;;;3.83;2.10;;;17.70;99.90;;;;;;5016403;28;20427;-75
2023/05/09 07:05:57;;;;;;;3.72;2.33;;;17.60;99.90;;;;;;5014171;28;20435;-75
2023/05/09 07:08:25;;;;;;;3.53;2.53;;;17.60;99.90;;;;;;5019445;28;20807;-75
2023/05/09 07:10:52;;;;;;;4.15;2.95;;;17.70;99.90;;;;;;5013160;28;20435;-75
2023/05/09 07:13:19;;;;;;;3.67;2.97;;;17.90;99.90;;;;;;5014114;28;20518;-75
2023/05/09 07:15:45;;;;;;;2.95;2.75;;;18.00;99.90;;;;;;5018394;28;20439;-75
2023/05/09 07:18:12;;;;;;;3.28;2.65;;;18.00;99.90;;;;;;5016867;28;20435;-75
2023/05/09 07:20:39;;;;;;;3.03;2.57;;;18.00;99.90;;;;;;5016954;28;20443;-75
2023/05/09 07:23:05;;;;;;;3.40;2.97;;;18.10;99.90;;;;;;5015752;28;20445;-75
2023/05/09 07:25:32;;;;;;;4.20;2.67;;;18.10;99.90;;;;;;5017256;28;20502;-75
2023/05/09 07:27:59;;;;;;;3.90;2.95;;;18.20;99.90;;;;;;5022733;28;20435;-76
2023/05/09 07:30:26;;;;;;;3.78;3.35;;;18.00;99.90;;;;;;5012613;28;20439;-75
2023/05/09 07:32:52;;;;;;;4.22;2.63;;;17.80;99.90;;;;;;5017077;28;20438;-75
2023/05/09 07:35:19;;;;;;;4.95;3.22;;;17.70;99.90;;;;;;5021215;28;20539;-75
2023/05/09 07:37:46;;;;;;;4.97;3.75;;;17.60;99.90;;;;;;5017594;28;20856;-75
2023/05/09 07:40:13;;;;;;;3.60;3.30;;;17.60;99.90;;;;;;5019128;28;20431;-75
2023/05/09 07:42:43;;;;;;;3.83;3.35;;;17.60;99.90;;;;;;5020541;28;20489;-75
2023/05/09 07:45:10;;;;;;;4.28;2.85;;;17.90;99.90;;;;;;5011457;28;20518;-75
2023/05/09 07:47:37;;;;;;;4.03;3.22;;;17.90;99.90;;;;;;5023643;28;20439;-75
2023/05/09 07:50:05;;;;;;;8.75;3.35;;;17.90;99.90;;;;;;5015231;28;20430;-75
2023/05/09 07:52:31;;;;;;;5.18;3.28;;;17.70;99.90;;;;;;5013905;28;20934;-75
2023/05/09 07:54:58;;;;;;;4.40;3.30;;;17.70;99.90;;;;;;5014128;28;20943;-75
2023/05/09 07:57:25;;;;;;;11.15;4.15;;;17.60;99.90;;;;;;5019211;28;20926;-75
2023/05/09 07:59:52;;;;;;;5.67;3.80;;;17.40;99.90;;;;;;5017180;28;20436;-75
2023/05/09 08:02:18;;;;;;;6.38;3.40;;;17.30;99.90;;;;;;5029967;28;20442;-75
2023/05/09 08:04:47;;;;;;;13.03;4.53;;;17.50;99.90;;;;;;5015405;28;20933;-75
2023/05/09 08:07:17;;;;;;;7.57;4.05;;;17.50;99.90;;;;;;5017886;28;20860;-75
2023/05/09 08:09:44;;;;;;;4.10;3.50;;;17.70;99.90;;;;;;5022528;28;20514;-75
2023/05/09 08:12:11;;;;;;;5.60;3.92;;;17.60;99.90;;;;;;5017632;28;20442;-75
2023/05/09 08:14:45;;;;;;;6.40;3.88;;;17.60;99.90;;;;;;5016483;28;20432;-76
2023/05/09 08:17:12;;;;;;;5.60;3.67;;;17.60;99.90;;;;;;5020949;28;20450;-76
2023/05/09 08:19:39;;;;;;;5.90;4.22;;;17.80;99.90;;;;;;5021510;28;20841;-77
2023/05/09 08:22:05;;;;;;;4.38;3.72;;;17.90;99.90;;;;;;5020460;28;20449;-74
2023/05/09 08:24:32;;;;;;;6.22;3.78;;;18.10;99.90;;;;;;5017753;28;20947;-74
2023/05/09 08:26:59;;;;;;;5.35;4.85;;;18.10;99.90;;;;;;5017897;28;20941;-74
2023/05/09 08:29:30;;;;;;;4.47;3.90;;;18.20;99.90;;;;;;5017398;28;20801;-75
2023/05/09 08:31:56;;;;;;;5.93;3.63;;;18.30;99.90;;;;;;5017300;28;20485;-75
2023/05/09 08:34:23;;;;;;;5.20;4.55;;;18.40;99.90;;;;;;5020327;28;20530;-75
2023/05/09 08:36:50;;;;;;;3.42;2.92;;;18.40;99.90;;;;;;5017313;28;20434;-75
2023/05/09 08:39:17;;;;;;;7.13;4.07;;;18.50;99.90;;;;;;5019879;28;20430;-74
2023/05/09 08:41:45;;;;;;;8.00;4.10;;;18.60;99.90;;;;;;5019067;28;20748;-75
2023/05/09 08:44:12;;;;;;;3.70;3.25;;;18.50;99.90;;;;;;5023291;28;20426;-75
2023/05/09 08:46:43;;;;;;;6.07;3.95;;;18.30;99.90;;;;;;5021441;28;20533;-74
2023/05/09 08:49:10;;;;;;;5.90;3.63;;;18.10;99.90;;;;;;5024516;28;20492;-74
2023/05/09 08:51:37;;;;;;;5.35;3.72;;;18.00;99.90;;;;;;5026951;28;20817;-75
2023/05/09 08:54:04;;;;;;;6.38;4.63;;;18.00;99.90;;;;;;5025337;28;20508;-74
2023/05/09 08:56:34;;;;;;;5.22;4.03;;;17.90;99.90;;;;;;5024682;28;20447;-75
2023/05/09 08:59:02;;;;;;;5.05;3.58;;;18.00;99.90;;;;;;5021620;28;20438;-74
2023/05/09 09:01:32;;;;;;;5.63;3.78;;;17.90;99.90;;;;;;5015127;28;20450;-74
2023/05/09 09:04:00;;;;;;;7.15;3.53;;;17.90;99.90;;;;;;5021557;28;20922;-73
2023/05/09 09:06:29;;;;;;;6.60;4.60;;;18.00;99.90;;;;;;5026012;28;20434;-74
2023/05/09 09:08:57;;;;;;;5.88;3.63;;;18.00;99.90;;;;;;5024246;28;20430;-73
2023/05/09 09:11:25;;;;;;;5.95;4.05;;;18.30;99.90;;;;;;5021622;28;20434;-73
2023/05/09 09:13:53;;;;;;;3.58;3.28;;;18.60;99.90;;;;;;5026757;28;20805;-74
2023/05/09 09:16:21;;;;;;;7.03;5.03;;;18.50;99.90;;;;;;5021714;28;20442;-74
2023/05/09 09:18:51;;;;;;;5.47;4.00;;;18.60;99.90;;;;;;5017467;28;20434;-73
2023/05/09 09:21:19;;;;;;;3.97;3.40;;;18.90;99.90;;;;;;5017533;28;20446;-73
2023/05/09 09:23:47;;;;;;;4.95;4.00;;;19.10;99.90;;;;;;5023533;28;20446;-74
2023/05/09 09:26:14;;;;;;;4.68;3.78;;;19.70;99.90;;;;;;5034842;28;20992;-74
2023/05/09 09:28:41;;;;;;;4.88;3.63;;;20.20;99.90;;;;;;5023253;28;20787;-74
2023/05/09 09:31:30;;;;;;;6.00;3.65;;;20.00;99.90;;;;;;5015130;28;20886;-74
2023/05/09 09:34:01;;;;;;;5.18;3.90;;;20.10;99.90;;;;;;5017153;28;20974;-74
2023/05/09 09:36:29;;;;;;;4.43;4.00;;;20.40;99.90;;;;;;5019838;28;20427;-74
2023/05/09 09:38:59;;;;;;;14.77;4.27;;;20.60;99.90;;;;;;5022360;28;20439;-74
2023/05/09 09:41:39;;;;;;;5.70;4.13;;;20.50;99.90;;;;;;5038357;28;20461;-74
2023/05/09 09:44:06;;;;;;;5.57;3.73;;;20.70;99.90;;;;;;5019880;28;20444;-74
2023/05/09 09:46:53;;;;;;;5.65;3.15;;;20.80;99.90;;;;;;5016872;28;20519;-74
2023/05/09 09:49:25;;;;;;;3.88;3.58;;;21.00;99.90;;;;;;5018225;28;20983;-74
2023/05/09 09:51:56;;;;;;;4.75;3.55;;;21.30;99.90;;;;;;5020232;28;20436;-74
2023/05/09 09:54:27;;;;;;;4.00;3.35;;;21.50;99.90;;;;;;5013291;28;20439;-74
2023/05/09 09:56:55;;;;;;;6.07;3.57;;;21.20;99.90;;;;;;5021168;28;20889;-73
2023/05/09 09:59:24;;;;;;;3.40;3.13;;;21.00;99.90;;;;;;5020761;28;20506;-73
2023/05/09 10:01:55;;;;;;;5.07;3.60;;;20.40;99.90;;;;;;5019379;28;20438;-73
2023/05/09 10:04:22;;;;;;;6.97;4.20;;;20.10;99.90;;;;;;5023857;28;20431;-74
2023/05/09 10:06:56;;;;;;;4.80;4.37;;;20.00;99.90;;;;;;5030615;28;20439;-74
2023/05/09 10:09:25;;;;;;;5.32;4.18;;;19.80;99.90;;;;;;5015820;28;20439;-73
2023/05/09 10:11:53;;;;;;;6.22;4.30;;;19.90;99.90;;;;;;5006785;28;20823;-73
2023/05/09 10:14:24;;;;;;;5.22;4.00;;;20.50;99.90;;;;;;5013504;28;20438;-74
2023/05/09 10:16:54;;;;;;;5.18;3.63;;;21.40;99.90;;;;;;5013591;28;20907;-74
2023/05/09 10:19:22;;;;;;;6.97;4.63;;;22.10;99.90;;;;;;5011988;28;20505;-72
2023/05/09 10:21:55;;;;;;;6.70;3.67;;;22.40;99.90;;;;;;5018030;28;20469;-73
2023/05/09 10:24:45;;;;;;;5.00;3.65;;;22.90;99.90;;;;;;5018683;28;20438;-73
2023/05/09 10:27:12;;;;;;;4.45;3.75;;;22.80;99.90;;;;;;5018702;28;20717;-73
2023/05/09 10:29:54;;;;;;;3.78;3.45;;;22.70;99.90;;;;;;5014121;28;20947;-74
2023/05/09 10:32:30;;;;;;;5.78;4.28;;;23.10;99.90;;;;;;5017765;28;20502;-73
2023/05/09 10:35:05;;;;;;;3.80;3.50;;;23.20;99.90;;;;;;5022628;28;20436;-72
2023/05/09 10:37:34;;;;;;;4.68;3.67;;;23.20;99.90;;;;;;5022230;28;20431;-73
2023/05/09 10:40:03;;;;;;;4.78;3.40;;;22.90;99.90;;;;;;5015080;28;20569;-73
2023/05/09 10:42:33;;;;;;;6.05;4.10;;;22.90;99.90;;;;;;5026685;28;20439;-73
2023/05/09 10:45:00;;;;;;;4.75;3.47;;;22.10;99.90;;;;;;5019324;28;20424;-73
2023/05/09 10:47:28;;;;;;;5.07;3.90;;;21.40;99.90;;;;;;5017739;28;20692;-73
2023/05/09 10:49:56;;;;;;;5.72;3.35;;;21.00;99.90;;;;;;5018995;28;20431;-73
2023/05/09 10:52:23;;;;;;;3.83;3.43;;;20.70;99.90;;;;;;5018796;28;20431;-73
2023/05/09 10:55:03;;;;;;;5.57;4.13;;;20.10;99.90;;;;;;5018660;28;20449;-74
2023/05/09 10:57:31;;;;;;;4.82;4.13;;;19.80;99.90;;;;;;5012425;28;20465;-73
2023/05/09 10:59:59;;;;;;;9.88;5.50;;;19.10;99.90;;;;;;5013570;28;20426;-73
2023/05/09 11:02:29;;;;;;;4.90;3.95;;;18.50;99.90;;;;;;5009908;28;20471;-73
2023/05/09 11:05:12;;;;;;;8.60;4.32;;;18.10;99.90;;;;;;5007502;28;20432;-73
2023/05/09 11:07:39;;;;;;;4.65;4.22;;;17.80;99.90;;;;;;5017564;28;20438;-73
2023/05/09 11:10:14;;;;;;;4.85;4.32;;;17.70;99.90;;;;;;5019016;28;20453;-74
2023/05/09 11:12:58;;;;;;;4.25;3.78;;;17.70;99.90;;;;;;5012086;28;20450;-73
2023/05/09 11:15:26;;;;;;;5.60;3.40;;;17.70;99.90;;;;;;5011048;28;20551;-74
2023/05/09 11:18:08;;;;;;;5.70;4.05;;;17.70;99.90;;;;;;5018085;28;20522;-74
2023/05/09 11:20:42;;;;;;;5.82;3.63;;;17.70;99.90;;;;;;5015888;28;20518;-73
2023/05/09 11:23:10;;;;;;;4.97;3.65;;;17.80;99.90;;;;;;5016807;28;20494;-74
2023/05/09 11:25:41;;;;;;;4.13;3.10;;;18.00;99.90;;;;;;5017556;28;20795;-73
2023/05/09 11:28:10;;;;;;;7.28;3.33;;;18.40;99.90;;;;;;5017693;28;20430;-73
2023/05/09 11:30:39;;;;;;;4.05;3.65;;;18.90;99.90;;;;;;5011928;28;20884;-73
2023/05/09 11:33:20;;;;;;;5.63;4.40;;;19.50;99.90;;;;;;5015523;28;20438;-73
2023/05/09 11:35:47;;;;;;;3.90;3.55;;;20.20;99.90;;;;;;5010004;28;20524;-73
2023/05/09 11:38:20;;;;;;;3.88;3.47;;;20.90;99.90;;;;;;5013132;28;20864;-74
2023/05/09 11:40:47;;;;;;;5.53;3.97;;;21.90;99.90;;;;;;5026128;28;20852;-73
2023/05/09 11:43:17;;;;;;;6.05;3.85;;;22.70;99.90;;;;;;5014667;28;20598;-72
2023/05/09 11:45:45;;;;;;;6.53;4.32;;;23.20;99.90;;;;;;5015225;28;20445;-72
2023/05/09 11:48:12;;;;;;;5.97;4.37;;;23.60;99.90;;;;;;5015875;28;20488;-72
2023/05/09 11:50:40;;;;;;;5.65;4.13;;;23.90;99.90;;;;;;5014723;28;20439;-72
2023/05/09 11:53:11;;;;;;;6.10;3.75;;;24.50;99.90;;;;;;5022079;28;20809;-72
2023/05/09 11:55:40;;;;;;;4.53;3.75;;;25.00;99.90;;;;;;5015555;28;20426;-73
2023/05/09 11:58:08;;;;;;;5.53;4.07;;;24.60;99.90;;;;;;5014515;28;20863;-73
2023/05/09 12:00:42;;;;;;;5.25;4.00;;;25.20;99.90;;;;;;5016856;28;20430;-73
2023/05/09 12:03:09;;;;;;;7.43;3.65;;;25.40;99.90;;;;;;5011445;28;20639;-72
2023/05/09 12:05:38;;;;;;;4.60;3.58;;;24.80;99.90;;;;;;5015495;28;20441;-73
2023/05/09 12:08:05;;;;;;;5.65;4.22;;;24.70;99.90;;;;;;5017698;28;20471;-73
2023/05/09 12:10:36;;;;;;;5.57;3.88;;;24.90;99.90;;;;;;5018591;28;20439;-73
2023/05/09 12:13:04;;;;;;;3.50;2.85;;;25.70;99.90;;;;;;5022369;28;20466;-72
2023/05/09 12:15:37;;;;;;;5.18;3.45;;;26.00;99.90;;;;;;5016345;28;20444;-73
2023/05/09 12:18:06;;;;;;;4.07;3.67;;;26.40;99.90;;;;;;5022322;28;20516;-72
2023/05/09 12:20:46;;;;;;;5.13;3.38;;;25.90;99.90;;;;;;5010763;28;20666;-72
2023/05/09 12:23:13;;;;;;;3.65;3.30;;;25.90;99.90;;;;;;5014280;28;20607;-72
2023/05/09 12:25:48;;;;;;;5.07;3.58;;;26.10;99.90;;;;;;5017279;28;20440;-72
2023/05/09 12:28:16;;;;;;;4.45;3.40;;;25.80;99.90;;;;;;5017029;28;20428;-72
2023/05/09 12:30:43;;;;;;;3.28;2.97;;;25.90;99.90;;;;;;5008426;28;20432;-72
2023/05/09 12:33:11;;;;;;;3.05;2.50;;;25.50;99.90;;;;;;5016476;28;20431;-71
2023/05/09 12:35:39;;;;;;;2.65;2.45;;;24.80;99.90;;;;;;5010484;28;20537;-71
2023/05/09 12:38:05;;;;;;;2.72;2.53;;;24.40;99.90;;;;;;5017346;28;20487;-72
2023/05/09 12:40:32;;;;;;;2.55;2.15;;;24.60;99.90;;;;;;5016794;28;20900;-72
2023/05/09 12:43:01;;;;;;;1.77;1.67;;;24.70;99.90;;;;;;5024291;28;20437;-72
2023/05/09 12:45:31;;;;;;;2.72;1.95;;;24.60;99.90;;;;;;5014595;28;20439;-72
2023/05/09 12:47:59;;;;;;;2.20;2.10;;;24.20;99.90;;;;;;5015754;28;20466;-72
2023/05/09 12:50:35;;;;;;;1.60;1.50;;;23.60;99.90;;;;;;5021347;28;20458;-72
2023/05/09 12:53:05;;;;;;;2.30;1.98;;;23.80;99.90;;;;;;5020085;28;20446;-72
2023/05/09 12:55:42;;;;;;;1.48;1.38;;;23.80;99.90;;;;;;5014567;28;20909;-72